This is the latest recevied weather packets stored in our database for station/object KI7JYE. If no packets are shown the sender has not sent any weather packets the latest 10 day(s).
| Time | Temp. | Humidity | Pressure | Rain* | Wind** | Luminosity | Snow |
|---|---|---|---|---|---|---|---|
| 1777925576 | 19.44° C | 67% | 1012.3 hPa | 0 mm | - | 625 W/m² | - |
| 1777925274 | 19.44° C | 67% | 1012.3 hPa | 0 mm | - | 621 W/m² | - |
| 1777924969 | 20° C | 67% | 1012.4 hPa | 0 mm | - | 639 W/m² | - |
| 1777924666 | 18.89° C | 69% | 1012.3 hPa | 0 mm | - | 584 W/m² | - |
| 1777924362 | 17.78° C | 71% | 1012.3 hPa | 0 mm | - | 675 W/m² | - |
| 1777924059 | 17.22° C | 73% | 1012.3 hPa | 0 mm | - | 544 W/m² | - |
| 1777923755 | 18.33° C | 71% | 1012.2 hPa | 0 mm | - | 772 W/m² | - |
| 1777923452 | 17.78° C | 70% | 1012.3 hPa | 0 mm | - | 342 W/m² | - |
| 1777923149 | 18.89° C | 69% | 1012.5 hPa | 0 mm | - | 387 W/m² | - |
| 1777922848 | 17.22° C | 74% | 1012.6 hPa | 0 mm | - | 858 W/m² | - |
| 1777922545 | 17.78° C | 73% | 1012.4 hPa | 0 mm | - | 392 W/m² | - |
| 1777922244 | 17.78° C | 71% | 1012.6 hPa | 0 mm | - | 551 W/m² | - |
| 1777921940 | 17.78° C | 72% | 1012.8 hPa | 0 mm | - | 463 W/m² | - |
| 1777921636 | 17.22° C | 71% | 1012.7 hPa | 0 mm | - | 372 W/m² | - |
| 1777921332 | 16.67° C | 74% | 1012.8 hPa | 0 mm | - | 390 W/m² | - |
| 1777921029 | 16.11° C | 76% | 1012.6 hPa | 0 mm | - | 684 W/m² | - |
| 1777920726 | 16.67° C | 75% | 1012.6 hPa | 0 mm | - | 333 W/m² | - |
| 1777920422 | 16.11° C | 77% | 1012.6 hPa | 0 mm | - | 293 W/m² | - |
| 1777920117 | 15.56° C | 78% | 1012.7 hPa | 0 mm | - | 283 W/m² | - |
| 1777919814 | 15.56° C | 79% | 1012.7 hPa | 0 mm | - | 275 W/m² | - |
| 1777919511 | 15.56° C | 77% | 1012.8 hPa | 0 mm | - | 263 W/m² | - |
| 1777919209 | 15.56° C | 79% | 1012.8 hPa | 0 mm | - | 231 W/m² | - |
| 1777918906 | 15.56° C | 79% | 1012.8 hPa | 0 mm | - | 206 W/m² | - |
| 1777918604 | 15° C | 79% | 1012.8 hPa | 0 mm | - | 202 W/m² | - |
| 1777918301 | 15° C | 79% | 1012.6 hPa | 0 mm | - | 191 W/m² | - |
* Rain latest hour (hover to see other rain measurements)
** Current wind speed in m/s (hover to see current wind gust speed)